Ana Sayfa
METAR-TAF:

METAR-TAF

Havaalanları :

Belgrad Nikola Tesla Havalimanı

Belgrad, Sırbistan

Enlem: 44-49N, Boylam: 020-17E, yükseklik: 96 m

Güncel hava durumu gözlemi

Rapor saat 00:30 UTC de 5 dakika önce yapıldı.
Rüzgar güneybatıdan 3 kt
Sıcaklık 13°C
Nem 88%
Basınç 1018 hPa
Görüş mesafesi 10 km veya daha fazla
1500 m altında bulut yok ve kümülonimbus yok

METAR: LYBE 250030Z 23003KT CAVOK 13/11 Q1018 NOSIG

Saat: 02:35 (00:35 UTC)

Tahmin

Rapor saat 23:00 UTC de 1 saat ve 35 dakika önce yapıldı.
Ayın 25'si saat 00 UTC'den ayın 25'si saat 24 UTC'ye kadar geçerli Tahmin
Rüzgar batıdan 6 kt
Görüş mesafesi 10 km veya daha fazla
1500 m altında bulut yok ve kümülonimbus yok

TAF: LYBE 242300Z 2500/2524 26006KT CAVOK TX23/2513Z TN11/2503Z

4.000'den fazla havaalanı için hava durumu gözlemleri ve tahminleri (METAR ve TAF raporları).

Kullanılabilir istasyonlar harita üzerinde sarı ve kırmızı noktalarla gösterilir.

İstasyonun adını görmek için fareyi noktanın üzerinde gezdirin.

Sonrasında hava gözlem ve tahminlerini görmek için tıklayın.

Haritayı değiştirmek için: yaklaştırmak için siyah artı işaretli yeşil düğmeye ve uzaklaştırmak için de eksi işaretli düğmeye hızla tıklayın; bitişik haritalar için yeşil okları kullanın.


METAR-TAF: